Time;durP1;ratioP1;P1;durP2;ratioP2;P2;SDS_P1;SDS_P2;PMS_P1;PMS_P2;Temp;Humidity;BMP_temperature;BMP_pressure;BME280_temperature;BME280_humidity;BME280_pressure;Samples;Min_cycle;Max_cycle;Signal;HPM_P1;HPM_P2
2021/09/15 00:01:50;;;;;;;6.22;4.60;;;;;;;20.87;67.04;97198.31;4937992;28;20122;-68
2021/09/15 00:04:15;;;;;;;6.28;4.85;;;;;;;20.87;67.06;97203.81;4938067;28;20027;-68
2021/09/15 00:06:41;;;;;;;9.00;4.65;;;;;;;20.86;66.97;97205.72;4935309;29;20026;-69
2021/09/15 00:09:07;;;;;;;7.15;4.50;;;;;;;20.85;67.15;97201.38;4944683;28;20121;-68
2021/09/15 00:11:32;;;;;;;6.43;4.82;;;;;;;20.86;67.21;97200.22;4954930;28;20027;-68
2021/09/15 00:13:58;;;;;;;7.40;4.78;;;;;;;20.87;66.96;97196.41;4955185;28;20142;-68
2021/09/15 00:16:23;;;;;;;8.30;4.60;;;;;;;20.87;66.93;97195.53;4954800;28;20035;-69
2021/09/15 00:18:49;;;;;;;6.85;4.55;;;;;;;20.87;67.11;97195.53;4954694;28;20099;-69
2021/09/15 00:21:14;;;;;;;6.53;4.03;;;;;;;20.87;67.13;97201.06;4945460;29;20027;-68
2021/09/15 00:23:39;;;;;;;6.53;4.38;;;;;;;20.86;66.82;97194.72;4939270;29;20015;-69
2021/09/15 00:26:05;;;;;;;6.25;5.00;;;;;;;20.86;66.95;97191.19;4948809;28;20035;-68
2021/09/15 00:28:30;;;;;;;6.20;4.63;;;;;;;20.87;66.99;97201.06;4946147;29;20031;-68
2021/09/15 00:30:56;;;;;;;8.07;4.30;;;;;;;20.86;66.76;97199.44;4921011;29;20163;-68
2021/09/15 00:33:21;;;;;;;7.20;4.68;;;;;;;20.85;66.78;97190.38;4924793;29;20533;-69
2021/09/15 00:35:47;;;;;;;6.95;4.55;;;;;;;20.87;66.66;97184.53;4936036;28;20023;-68
2021/09/15 00:38:12;;;;;;;7.75;4.43;;;;;;;20.86;67.05;97177.44;4927312;28;20038;-69
2021/09/15 00:40:37;;;;;;;6.70;4.25;;;;;;;20.86;66.70;97175.47;4936601;29;20031;-68
2021/09/15 00:43:03;;;;;;;6.72;4.40;;;;;;;20.86;66.63;97171.94;4945707;29;20502;-68
2021/09/15 00:45:28;;;;;;;6.93;4.50;;;;;;;20.87;66.86;97168.03;4951343;28;20046;-69
2021/09/15 00:47:54;;;;;;;7.40;4.28;;;;;;;20.86;66.47;97175.47;4965139;28;20026;-69
2021/09/15 00:50:19;;;;;;;7.20;4.30;;;;;;;20.86;66.62;97169.97;4947413;28;20038;-68
2021/09/15 00:52:45;;;;;;;5.38;4.13;;;;;;;20.87;66.76;97176.28;4944688;29;20038;-69
2021/09/15 00:55:11;;;;;;;6.80;4.65;;;;;;;20.86;66.90;97175.47;4944946;28;20073;-68
2021/09/15 00:57:36;;;;;;;6.63;4.40;;;;;;;20.86;66.83;97171.94;4960000;28;20039;-69
2021/09/15 01:00:03;;;;;;;10.02;4.53;;;;;;;20.85;66.69;97171.09;4935898;28;20594;-69
2021/09/15 01:02:28;;;;;;;5.80;4.50;;;;;;;20.87;66.66;97168.03;4930666;28;20062;-68
2021/09/15 01:04:54;;;;;;;6.63;4.63;;;;;;;20.86;66.55;97164.47;4944829;29;20142;-68
2021/09/15 01:07:19;;;;;;;6.72;4.13;;;;;;;20.86;66.68;97158.16;4927718;29;20443;-69
2021/09/15 01:09:47;;;;;;;5.70;4.05;;;;;;;20.86;66.33;97158.97;4944430;29;20787;-69
2021/09/15 01:12:13;;;;;;;7.32;4.80;;;;;;;20.86;66.66;97163.66;4928300;29;20031;-69
2021/09/15 01:14:39;;;;;;;6.32;4.40;;;;;;;20.86;66.48;97158.97;4946011;29;20023;-69
2021/09/15 01:17:08;;;;;;;6.93;4.03;;;;;;;20.85;66.68;97157.34;4931778;28;20020;-68
2021/09/15 01:19:34;;;;;;;6.70;4.10;;;;;;;20.87;66.47;97155.13;4940196;29;20035;-68
2021/09/15 01:22:00;;;;;;;6.13;4.47;;;;;;;20.86;66.67;97149.91;4948083;29;20031;-69
2021/09/15 01:24:27;;;;;;;7.53;4.78;;;;;;;20.86;66.25;97149.91;4957001;28;20718;-69
2021/09/15 01:26:53;;;;;;;6.60;4.40;;;;;;;20.86;66.56;97149.91;4928978;29;20107;-68
2021/09/15 01:29:40;;;;;;;6.55;4.40;;;;;;;20.85;66.20;97149.09;4936296;29;20113;-69
2021/09/15 01:32:12;;;;;;;7.28;4.50;;;;;;;20.85;66.49;97151.84;4963618;28;20502;-69
2021/09/15 01:34:40;;;;;;;6.97;4.03;;;;;;;20.85;66.23;97148.28;4949098;29;20407;-68
2021/09/15 01:37:08;;;;;;;6.10;4.13;;;;;;;20.85;66.38;97142.78;4947944;29;20047;-68
2021/09/15 01:39:33;;;;;;;7.60;4.95;;;;;;;20.85;66.04;97140.03;4948757;29;20027;-68
2021/09/15 01:42:00;;;;;;;7.03;4.97;;;;;;;20.86;66.20;97142.44;4948592;29;20039;-68
2021/09/15 01:44:33;;;;;;;7.10;4.30;;;;;;;20.87;66.46;97146.03;4947571;29;20448;-69
2021/09/15 01:47:01;;;;;;;6.93;4.65;;;;;;;20.85;66.23;97149.09;4966497;28;20027;-69
2021/09/15 01:49:30;;;;;;;5.93;3.95;;;;;;;20.86;66.35;97153.44;4946806;28;20147;-69
2021/09/15 01:51:56;;;;;;;7.50;4.38;;;;;;;20.85;66.46;97149.09;4940574;29;20470;-68
2021/09/15 01:54:22;;;;;;;6.97;4.20;;;;;;;20.85;66.05;97138.09;4947638;29;20034;-69
2021/09/15 01:56:47;;;;;;;6.43;4.40;;;;;;;20.85;66.31;97145.53;4947527;29;20038;-68
2021/09/15 01:59:12;;;;;;;7.38;4.32;;;;;;;20.85;66.04;97134.50;4961509;28;20057;-69
2021/09/15 02:01:38;;;;;;;6.82;4.30;;;;;;;20.85;65.92;97129.84;4967513;28;20026;-68
2021/09/15 02:04:03;;;;;;;6.28;4.35;;;;;;;20.86;65.96;97130.66;4966426;28;20026;-68
2021/09/15 02:06:29;;;;;;;6.20;4.43;;;;;;;20.87;66.25;97124.84;4967980;28;20023;-69
2021/09/15 02:08:54;;;;;;;8.75;4.70;;;;;;;20.87;65.99;97119.34;4966319;28;20041;-69
2021/09/15 02:11:19;;;;;;;7.45;4.78;;;;;;;20.87;65.88;97121.25;4966497;28;20397;-68
2021/09/15 02:13:45;;;;;;;8.63;4.80;;;;;;;20.84;66.07;97114.47;4957752;28;20404;-69
2021/09/15 02:16:10;;;;;;;6.47;4.20;;;;;;;20.85;66.02;97107.81;4943362;28;20128;-69
2021/09/15 02:18:35;;;;;;;5.47;3.75;;;;;;;20.86;65.85;97120.44;4933994;29;20031;-68
2021/09/15 02:21:01;;;;;;;6.35;3.95;;;;;;;20.85;66.12;97116.06;4948085;28;20051;-69
2021/09/15 02:23:26;;;;;;;6.80;4.35;;;;;;;20.85;66.23;97118.81;4948057;28;20059;-68
2021/09/15 02:25:52;;;;;;;6.90;4.45;;;;;;;20.84;66.23;97124.66;4946826;29;20110;-69
2021/09/15 02:28:17;;;;;;;6.38;4.25;;;;;;;20.84;66.28;97116.41;4947495;28;20031;-69
2021/09/15 02:30:43;;;;;;;6.97;4.53;;;;;;;20.84;66.41;97119.16;4943656;28;20038;-69
2021/09/15 02:33:08;;;;;;;9.20;4.07;;;;;;;20.84;66.21;97119.16;4945855;28;20499;-68
2021/09/15 02:35:33;;;;;;;6.00;4.13;;;;;;;20.84;66.31;97125.47;4947117;29;20098;-69
2021/09/15 02:37:59;;;;;;;5.93;4.72;;;;;;;20.84;66.03;97124.66;4943434;28;20027;-69
2021/09/15 02:40:24;;;;;;;5.82;3.58;;;;;;;20.85;65.96;97120.75;4935667;28;20626;-68
2021/09/15 02:42:49;;;;;;;5.60;4.00;;;;;;;20.84;66.18;97124.66;4947482;28;20118;-68
2021/09/15 02:45:15;;;;;;;5.90;4.18;;;;;;;20.84;66.21;97116.41;4945513;28;20031;-68
2021/09/15 02:47:40;;;;;;;6.90;4.35;;;;;;;20.82;66.01;97111.22;4943225;28;20055;-68
2021/09/15 02:50:06;;;;;;;10.48;4.70;;;;;;;20.84;66.44;97116.41;4960494;28;20070;-69
2021/09/15 02:52:31;;;;;;;8.30;4.22;;;;;;;20.83;66.21;97112.03;4946979;28;20059;-69
2021/09/15 02:54:56;;;;;;;8.07;4.15;;;;;;;20.84;66.01;97114.47;4946900;29;20061;-68
2021/09/15 02:57:22;;;;;;;6.72;4.50;;;;;;;20.84;66.41;97108.97;4947561;28;20610;-69
2021/09/15 02:59:47;;;;;;;6.70;4.30;;;;;;;20.83;66.23;97112.84;4963856;28;20430;-68
2021/09/15 03:02:12;;;;;;;5.60;4.20;;;;;;;20.84;65.79;97111.72;4966315;28;20654;-68
2021/09/15 03:04:37;;;;;;;7.28;4.40;;;;;;;20.83;66.27;97112.84;4955295;28;20479;-70
2021/09/15 03:07:03;;;;;;;6.45;4.35;;;;;;;20.84;66.21;97111.72;4927078;29;20837;-69
2021/09/15 03:09:28;;;;;;;6.25;4.35;;;;;;;20.84;66.11;97108.13;4926910;29;20131;-69
2021/09/15 03:11:54;;;;;;;6.18;4.60;;;;;;;20.84;66.20;97111.72;4928193;29;20031;-69
2021/09/15 03:14:19;;;;;;;8.65;4.70;;;;;;;20.84;66.08;97106.22;4930556;28;20024;-69
2021/09/15 03:16:44;;;;;;;5.97;4.10;;;;;;;20.84;65.92;97110.91;4935088;28;20507;-68
2021/09/15 03:19:10;;;;;;;5.55;4.35;;;;;;;20.82;66.07;97111.22;4949417;28;20023;-69
2021/09/15 03:21:35;;;;;;;5.47;4.18;;;;;;;20.84;66.22;97108.13;4957602;28;20087;-68
2021/09/15 03:24:00;;;;;;;5.65;3.92;;;;;;;20.83;65.97;97112.03;4958924;28;20617;-69
2021/09/15 03:26:26;;;;;;;6.43;4.03;;;;;;;20.83;65.88;97112.84;4958875;28;20495;-68
2021/09/15 03:28:51;;;;;;;7.43;4.28;;;;;;;20.83;65.89;97103.78;4960003;28;20106;-68
2021/09/15 03:31:17;;;;;;;6.50;4.35;;;;;;;20.83;65.81;97107.34;4929706;28;20059;-68
2021/09/15 03:33:42;;;;;;;6.10;4.35;;;;;;;20.84;65.80;97108.13;4926581;29;20047;-68
2021/09/15 03:36:08;;;;;;;5.90;4.10;;;;;;;20.83;65.82;97099.09;4926989;29;20035;-68
2021/09/15 03:38:33;;;;;;;8.10;4.60;;;;;;;20.84;66.08;97105.38;4926638;29;20495;-68
2021/09/15 03:40:58;;;;;;;5.32;3.70;;;;;;;20.82;66.21;97102.97;4926565;29;20028;-69
2021/09/15 03:43:24;;;;;;;5.75;4.10;;;;;;;20.83;65.88;97103.78;4927970;29;20075;-68
2021/09/15 03:45:49;;;;;;;5.70;4.10;;;;;;;20.83;65.90;97101.84;4921410;29;20031;-68
2021/09/15 03:48:14;;;;;;;6.38;4.57;;;;;;;20.83;66.08;97096.34;4946335;29;20031;-69
2021/09/15 03:50:40;;;;;;;5.85;4.32;;;;;;;20.83;66.08;97096.34;4929588;29;20037;-68
2021/09/15 03:53:05;;;;;;;7.88;4.53;;;;;;;20.83;66.13;97088.09;4944526;28;20031;-70
2021/09/15 03:55:30;;;;;;;7.30;4.78;;;;;;;20.85;65.86;97098.75;4959782;28;20034;-68
2021/09/15 03:57:56;;;;;;;7.38;4.22;;;;;;;20.83;65.96;97090.84;4964721;28;20038;-69
2021/09/15 04:00:21;;;;;;;5.78;3.92;;;;;;;20.85;65.72;97090.50;4964940;28;20682;-68
2021/09/15 04:02:46;;;;;;;6.32;4.38;;;;;;;20.83;65.71;97085.34;4963673;28;20026;-69
2021/09/15 04:05:12;;;;;;;6.50;4.00;;;;;;;20.84;65.88;97083.38;4937787;28;20043;-69
2021/09/15 04:07:39;;;;;;;5.65;3.80;;;;;;;20.84;66.15;97088.88;4963424;28;20042;-69
2021/09/15 04:10:05;;;;;;;5.43;4.00;;;;;;;20.83;65.81;97082.59;4951739;28;20554;-69
2021/09/15 04:12:30;;;;;;;7.00;4.78;;;;;;;20.83;65.67;97098.28;4944366;28;20110;-69
2021/09/15 04:14:56;;;;;;;5.20;3.80;;;;;;;20.83;66.43;97101.03;4938811;28;20118;-69
2021/09/15 04:17:21;;;;;;;5.78;4.15;;;;;;;20.84;66.06;97108.13;4942789;29;20108;-68
2021/09/15 04:19:46;;;;;;;6.28;3.78;;;;;;;20.84;65.87;97110.91;4946715;28;20107;-69
2021/09/15 04:22:18;;;;;;;5.43;3.88;;;;;;;20.83;65.96;97123.84;4946012;28;20034;-69
2021/09/15 04:32:33;;;;;;;5.85;4.15;;;;;;;20.83;66.18;97123.03;4927985;29;20036;-69
2021/09/15 04:34:58;;;;;;;6.20;4.05;;;;;;;20.84;65.81;97127.41;4927385;29;20672;-69
2021/09/15 04:37:24;;;;;;;7.00;4.00;;;;;;;20.85;65.74;97120.75;4926090;29;20028;-68
2021/09/15 04:39:49;;;;;;;6.22;4.25;;;;;;;20.86;65.78;97130.66;4927490;29;20407;-69
2021/09/15 04:42:14;;;;;;;5.97;4.03;;;;;;;20.85;65.98;97121.56;4927371;29;20700;-69
2021/09/15 04:44:40;;;;;;;7.47;4.30;;;;;;;20.85;65.81;97126.25;4927713;29;20404;-69
2021/09/15 04:47:05;;;;;;;8.68;4.57;;;;;;;20.82;66.23;97130.47;4945052;29;20024;-68
2021/09/15 04:49:31;;;;;;;7.43;4.40;;;;;;;20.82;66.24;97124.19;4946749;29;20023;-69
2021/09/15 04:51:56;;;;;;;8.27;4.35;;;;;;;20.82;66.50;97133.22;4960848;28;20058;-69
2021/09/15 04:54:21;;;;;;;6.07;4.35;;;;;;;20.81;66.44;97126.13;4945565;28;20027;-69
2021/09/15 04:56:47;;;;;;;8.55;4.80;;;;;;;20.78;66.50;97138.59;4964811;28;20670;-69
2021/09/15 04:59:12;;;;;;;6.85;4.50;;;;;;;20.77;66.76;97136.16;4959051;28;20023;-68
2021/09/15 05:01:37;;;;;;;7.18;4.82;;;;;;;20.78;66.48;97132.25;4968005;28;20197;-69
2021/09/15 05:04:03;;;;;;;5.80;3.90;;;;;;;20.81;66.65;97134.38;4970331;28;20058;-69
2021/09/15 05:06:28;;;;;;;8.50;4.55;;;;;;;20.80;66.45;97147.31;4969267;28;20027;-69
2021/09/15 05:08:54;;;;;;;6.80;4.35;;;;;;;20.81;66.60;97148.13;4967534;28;20070;-68
2021/09/15 05:11:19;;;;;;;6.55;4.55;;;;;;;20.81;66.68;97145.38;4968178;28;20600;-69
2021/09/15 05:13:44;;;;;;;7.90;4.45;;;;;;;20.82;66.21;97144.22;4965032;28;20110;-69
2021/09/15 05:16:10;;;;;;;5.45;3.65;;;;;;;20.82;66.67;97146.19;4955499;28;20442;-69
2021/09/15 05:18:35;;;;;;;7.53;4.47;;;;;;;20.81;66.27;97148.13;4945734;28;20023;-69
2021/09/15 05:23:17;;;;;;;6.75;4.07;;;;;;;20.53;68.18;97138.25;5061107;28;20414;-46
2021/09/15 05:25:43;;;;;;;8.65;4.43;;;;;;;20.44;69.12;97131.13;5061835;28;20745;-49
2021/09/15 05:28:08;;;;;;;7.07;4.15;;;;;;;20.42;68.79;97125.16;5056025;28;20526;-48
2021/09/15 05:30:33;;;;;;;6.15;4.35;;;;;;;20.37;69.11;97137.13;5051513;28;20044;-45
2021/09/15 05:32:59;;;;;;;6.18;4.10;;;;;;;20.39;68.61;97141.16;5048486;28;20062;-49
2021/09/15 05:35:24;;;;;;;6.50;3.83;;;;;;;20.43;68.75;97135.03;5037896;28;20103;-46
2021/09/15 05:37:50;;;;;;;6.80;4.18;;;;;;;20.44;68.64;97137.47;5051927;28;20048;-46
2021/09/15 05:40:15;;;;;;;5.82;3.75;;;;;;;20.45;68.59;97139.06;5059588;28;20082;-47
2021/09/15 05:42:40;;;;;;;5.57;3.85;;;;;;;20.47;68.79;97142.31;5057420;28;20025;-50
2021/09/15 05:45:06;;;;;;;7.95;4.05;;;;;;;20.43;68.96;97140.53;5057041;28;20032;-46
2021/09/15 05:47:32;;;;;;;6.30;3.67;;;;;;;20.42;69.14;97144.41;5046086;28;20110;-47
2021/09/15 05:49:58;;;;;;;9.27;4.30;;;;;;;20.42;68.60;97145.25;5044194;28;20029;-45
2021/09/15 05:52:24;;;;;;;10.70;3.75;;;;;;;20.43;69.02;97149.59;5046200;28;20083;-46
2021/09/15 05:54:50;;;;;;;6.70;3.90;;;;;;;20.40;68.86;97153.81;5052126;28;20029;-49
2021/09/15 05:57:15;;;;;;;5.30;3.60;;;;;;;20.42;69.26;97158.97;5057000;28;20788;-45
2021/09/15 05:59:41;;;;;;;7.32;4.00;;;;;;;20.42;68.86;97158.97;5048666;28;20028;-47
2021/09/15 06:02:06;;;;;;;9.77;3.53;;;;;;;20.43;69.02;97155.09;5059418;28;20476;-45
2021/09/15 06:04:31;;;;;;;8.27;3.65;;;;;;;20.44;68.94;97150.38;5052080;28;20376;-48
2021/09/15 06:06:57;;;;;;;6.43;3.28;;;;;;;20.42;69.78;97152.66;5049010;28;20073;-48
2021/09/15 06:09:22;;;;;;;7.82;3.75;;;;;;;20.37;69.94;97151.69;5058368;28;20032;-50
2021/09/15 06:11:48;;;;;;;7.05;3.72;;;;;;;20.36;70.15;97152.81;5057285;28;20020;-48
2021/09/15 06:14:13;;;;;;;6.07;3.78;;;;;;;20.34;69.95;97152.31;5052415;28;20556;-47
2021/09/15 06:16:39;;;;;;;7.25;3.60;;;;;;;20.33;70.24;97152.66;5046977;28;20025;-48
2021/09/15 06:19:04;;;;;;;7.57;3.83;;;;;;;20.33;70.42;97155.38;5049492;28;20021;-50
2021/09/15 06:21:29;;;;;;;6.38;4.15;;;;;;;20.34;70.24;97155.06;5056945;28;20032;-49
2021/09/15 06:23:55;;;;;;;5.80;3.45;;;;;;;20.36;70.26;97149.25;5058285;28;20067;-51
2021/09/15 06:26:24;;;;;;;8.20;4.03;;;;;;;20.37;69.75;97148.94;5058843;28;20037;-48
2021/09/15 06:28:51;;;;;;;8.23;3.80;;;;;;;20.39;70.30;97145.88;5056064;28;20021;-51
2021/09/15 06:31:16;;;;;;;8.90;3.70;;;;;;;20.38;70.20;97147.00;5047345;28;20029;-48
2021/09/15 06:33:41;;;;;;;9.00;3.47;;;;;;;20.37;70.35;97139.88;5030342;28;20073;-50
2021/09/15 06:36:07;;;;;;;8.73;3.78;;;;;;;20.39;69.95;97152.16;5030448;28;20033;-48
2021/09/15 06:38:32;;;;;;;6.75;3.80;;;;;;;20.39;69.92;97143.91;5026239;28;20792;-50
2021/09/15 06:40:58;;;;;;;7.03;3.70;;;;;;;20.42;70.21;97142.50;5031514;28;20102;-50
2021/09/15 06:43:23;;;;;;;7.00;3.50;;;;;;;20.42;70.06;97144.41;5039247;28;20029;-47
2021/09/15 06:45:48;;;;;;;8.10;3.80;;;;;;;20.44;70.05;97139.38;5042085;28;20067;-48
2021/09/15 06:48:14;;;;;;;7.60;3.70;;;;;;;20.45;70.10;97146.53;5045230;28;20020;-47
2021/09/15 06:50:39;;;;;;;8.82;3.70;;;;;;;20.46;69.83;97142.63;5044998;28;20084;-47
2021/09/15 06:53:04;;;;;;;12.43;4.43;;;;;;;20.47;70.21;97136.00;5044807;28;20059;-48
2021/09/15 06:55:30;;;;;;;6.20;3.85;;;;;;;20.45;70.02;97135.53;5045282;28;20037;-47
2021/09/15 06:57:55;;;;;;;8.13;3.67;;;;;;;20.42;70.40;97133.41;5033057;28;20063;-50
2021/09/15 07:00:21;;;;;;;10.25;3.67;;;;;;;20.46;69.93;97126.97;5045197;28;20104;-52
2021/09/15 07:02:46;;;;;;;6.18;3.83;;;;;;;20.51;69.01;97125.97;5037541;28;20121;-46
2021/09/15 07:05:12;;;;;;;9.73;4.10;;;;;;;20.51;69.18;97129.53;5035419;28;20037;-48
2021/09/15 07:07:37;;;;;;;8.48;3.60;;;;;;;20.50;69.36;97130.66;5026403;28;20024;-50
2021/09/15 07:10:07;;;;;;;6.43;3.92;;;;;;;20.50;69.57;97130.66;5027462;28;20743;-52
2021/09/15 07:12:33;;;;;;;9.02;3.95;;;;;;;20.49;69.98;97123.53;5029175;28;20029;-49
2021/09/15 07:14:58;;;;;;;7.20;3.70;;;;;;;20.49;69.27;97129.03;5033931;28;20033;-46
2021/09/15 07:17:24;;;;;;;6.55;4.25;;;;;;;20.48;69.47;97130.19;5040380;28;20083;-51
2021/09/15 07:19:49;;;;;;;6.07;3.65;;;;;;;20.49;69.45;97133.75;5038477;28;20064;-48
2021/09/15 07:22:15;;;;;;;5.55;3.45;;;;;;;20.50;69.54;97140.88;5043500;28;20551;-49
2021/09/15 07:24:40;;;;;;;6.30;3.97;;;;;;;20.54;69.46;97150.09;5044827;28;20040;-47
2021/09/15 07:27:06;;;;;;;7.57;3.60;;;;;;;20.54;69.92;97148.13;5035036;28;20108;-47
2021/09/15 07:29:31;;;;;;;6.60;3.47;;;;;;;20.54;70.03;97144.59;5025104;28;20059;-48
2021/09/15 07:31:56;;;;;;;8.88;4.15;;;;;;;20.50;70.07;97151.84;5023989;28;20029;-48
2021/09/15 07:34:22;;;;;;;8.52;3.83;;;;;;;20.48;70.25;97146.69;5024143;28;20039;-49
2021/09/15 07:36:47;;;;;;;7.50;3.78;;;;;;;20.45;70.56;97152.81;5040507;28;20035;-46
2021/09/15 07:39:13;;;;;;;5.40;3.65;;;;;;;20.46;70.71;97150.88;5034237;28;20476;-47
2021/09/15 07:41:38;;;;;;;7.53;4.25;;;;;;;20.50;69.92;97155.41;5038542;28;20023;-46
2021/09/15 07:44:03;;;;;;;8.35;3.83;;;;;;;20.54;70.33;97161.88;5044205;28;20035;-48
2021/09/15 07:46:29;;;;;;;7.35;3.95;;;;;;;20.54;69.82;97172.09;5017855;28;20546;-45
2021/09/15 07:48:54;;;;;;;6.55;4.10;;;;;;;20.52;70.12;97171.59;5034919;28;20039;-48
2021/09/15 07:51:20;;;;;;;8.55;4.80;;;;;;;20.53;70.00;97171.25;5037786;28;20588;-47
2021/09/15 07:53:46;;;;;;;7.07;4.13;;;;;;;20.48;70.45;97173.34;5023261;28;20128;-47
2021/09/15 07:56:12;;;;;;;10.07;4.03;;;;;;;20.50;70.37;97165.63;5037472;28;20032;-47
2021/09/15 07:58:37;;;;;;;7.20;3.97;;;;;;;20.49;70.05;97164.78;5031972;28;20033;-50
2021/09/15 08:01:03;;;;;;;7.55;3.80;;;;;;;20.47;70.33;97161.56;5041916;28;20669;-49
2021/09/15 08:03:29;;;;;;;6.20;3.70;;;;;;;20.47;70.34;97160.75;5032490;28;20119;-47
2021/09/15 08:05:54;;;;;;;6.72;3.75;;;;;;;20.46;70.99;97162.72;5044427;28;20035;-46
2021/09/15 08:08:20;;;;;;;6.40;3.00;;;;;;;20.48;70.45;97162.34;5028476;28;20635;-50
2021/09/15 08:10:46;;;;;;;6.80;3.88;;;;;;;20.49;70.41;97158.50;5012054;28;20547;-48
2021/09/15 08:13:11;;;;;;;8.02;3.10;;;;;;;20.51;70.00;97169.97;5034783;28;20018;-48
2021/09/15 08:15:36;;;;;;;8.50;3.75;;;;;;;20.52;70.18;97175.16;5033157;28;20036;-47
2021/09/15 08:18:02;;;;;;;5.75;3.53;;;;;;;20.50;70.43;97180.16;5029824;28;20480;-51
2021/09/15 08:20:27;;;;;;;7.20;3.85;;;;;;;20.48;70.07;97192.59;5023872;28;20033;-46
2021/09/15 08:22:53;;;;;;;8.35;3.42;;;;;;;20.47;70.46;97193.75;5031125;28;20021;-47
2021/09/15 08:25:18;;;;;;;6.00;3.22;;;;;;;20.50;70.46;97196.66;5029837;28;20099;-51
2021/09/15 08:27:44;;;;;;;8.15;3.42;;;;;;;20.49;70.31;97197.78;5020709;28;20033;-49
2021/09/15 08:30:10;;;;;;;6.03;2.95;;;;;;;20.47;70.08;97216.56;5024856;28;20025;-51
2021/09/15 08:32:35;;;;;;;7.13;3.40;;;;;;;20.42;70.07;97191.16;5031105;28;20094;-51
2021/09/15 08:35:01;;;;;;;6.28;3.20;;;;;;;20.36;70.59;97196.81;5042988;28;20024;-48
2021/09/15 08:37:31;;;;;;;5.15;3.28;;;;;;;20.31;70.59;97185.16;5042678;28;20028;-52
2021/09/15 08:39:57;;;;;;;5.80;2.87;;;;;;;20.34;70.26;97188.06;5035992;28;20036;-47
2021/09/15 08:42:22;;;;;;;5.38;2.97;;;;;;;20.39;70.63;97181.63;5031232;28;20028;-50
2021/09/15 08:44:47;;;;;;;6.65;3.40;;;;;;;20.44;70.28;97177.88;5026947;28;20116;-47
2021/09/15 08:47:13;;;;;;;5.18;3.03;;;;;;;20.48;70.36;97176.09;5023197;28;20037;-45
2021/09/15 08:49:39;;;;;;;6.82;2.80;;;;;;;20.52;69.72;97180.66;5037682;28;20025;-53
2021/09/15 08:52:04;;;;;;;6.28;3.33;;;;;;;20.54;70.06;97181.13;5007223;28;20401;-51
2021/09/15 08:54:30;;;;;;;5.20;3.15;;;;;;;20.56;69.83;97180.81;5005750;28;20036;-46
2021/09/15 08:56:55;;;;;;;7.20;3.15;;;;;;;20.59;69.40;97190.34;5018978;28;20021;-45
2021/09/15 08:59:21;;;;;;;5.32;3.35;;;;;;;20.57;69.61;97182.44;5024607;28;20033;-48
2021/09/15 09:01:46;;;;;;;5.28;2.92;;;;;;;20.59;69.80;97185.66;5018618;28;20067;-46
2021/09/15 09:04:15;;;;;;;5.85;3.28;;;;;;;20.60;69.74;97181.78;5024422;28;20060;-50
2021/09/15 09:06:41;;;;;;;5.68;3.28;;;;;;;20.59;69.71;97193.09;5024753;28;20036;-45
2021/09/15 09:09:07;;;;;;;4.93;2.95;;;;;;;20.57;69.72;97184.38;5022616;28;20037;-47
2021/09/15 09:11:34;;;;;;;5.40;3.22;;;;;;;20.50;69.98;97187.63;5023719;28;20026;-48
2021/09/15 09:14:05;;;;;;;6.30;3.03;;;;;;;20.51;70.01;97187.28;5028916;28;20681;-44
2021/09/15 09:16:44;;;;;;;8.02;3.03;;;;;;;20.46;70.15;97192.13;5026937;28;20400;-46
2021/09/15 09:19:12;;;;;;;6.05;3.22;;;;;;;20.46;70.35;97183.88;5034089;28;20025;-47
2021/09/15 09:21:39;;;;;;;5.88;3.60;;;;;;;20.47;70.00;97185.50;5043253;28;20074;-48
2021/09/15 09:24:07;;;;;;;4.57;2.75;;;;;;;20.40;70.45;97197.78;5044493;28;20031;-46
2021/09/15 09:26:55;;;;;;;6.88;3.13;;;;;;;20.38;70.99;97197.28;5024771;28;20029;-46
2021/09/15 09:29:22;;;;;;;5.40;3.10;;;;;;;20.39;70.68;97196.16;5020217;28;20112;-49
2021/09/15 09:31:54;;;;;;;6.95;3.20;;;;;;;20.34;71.08;97190.03;5019310;28;20060;-49
2021/09/15 09:34:20;;;;;;;7.05;3.60;;;;;;;20.37;71.40;97195.69;5022145;28;20036;-46
2021/09/15 09:37:04;;;;;;;5.72;3.05;;;;;;;20.37;71.18;97198.44;5022778;28;20029;-46
2021/09/15 09:39:41;;;;;;;7.90;3.65;;;;;;;20.40;71.16;97194.22;5031419;28;20041;-47
2021/09/15 09:42:22;;;;;;;5.65;2.92;;;;;;;20.38;71.20;97191.00;5038431;28;20024;-46
2021/09/15 09:44:47;;;;;;;4.67;2.70;;;;;;;20.38;71.64;97191.00;5040657;28;20033;-48
2021/09/15 09:47:20;;;;;;;7.30;4.60;;;;;;;20.37;71.97;97187.44;5034009;28;20036;-48
2021/09/15 09:50:02;;;;;;;7.57;3.40;;;;;;;20.41;71.54;97190.34;5024053;28;20029;-47
2021/09/15 09:52:28;;;;;;;6.65;3.58;;;;;;;20.44;71.63;97192.44;5024088;28;20021;-47
2021/09/15 09:55:01;;;;;;;6.18;3.40;;;;;;;20.45;71.66;97190.53;5024470;28;20503;-47
2021/09/15 09:57:27;;;;;;;8.90;3.78;;;;;;;20.42;71.66;97191.16;5024148;28;20095;-47
2021/09/15 09:59:52;;;;;;;6.30;3.35;;;;;;;20.44;71.66;97192.44;5024897;28;20100;-48
2021/09/15 10:02:18;;;;;;;7.45;3.63;;;;;;;20.47;71.92;97191.81;5023461;28;20021;-50
2021/09/15 10:04:43;;;;;;;5.63;3.10;;;;;;;20.46;71.68;97186.63;5022788;28;20060;-45
2021/09/15 10:07:12;;;;;;;7.63;3.40;;;;;;;20.41;72.27;97195.84;5024416;28;20064;-47
2021/09/15 10:09:39;;;;;;;6.45;3.78;;;;;;;20.36;72.38;97179.50;5026759;28;20707;-48
2021/09/15 10:12:05;;;;;;;6.65;3.10;;;;;;;20.43;72.00;97195.53;5022048;28;20049;-51
2021/09/15 10:14:31;;;;;;;5.07;3.03;;;;;;;20.43;71.98;97190.84;5025867;28;20067;-50
2021/09/15 10:16:58;;;;;;;6.10;3.25;;;;;;;20.45;71.85;97193.28;5028436;28;20057;-46
2021/09/15 10:19:36;;;;;;;7.13;3.95;;;;;;;20.48;72.05;97195.34;5037566;28;20033;-47
2021/09/15 10:22:03;;;;;;;6.15;3.22;;;;;;;20.44;72.34;97186.94;5045794;28;20017;-46
2021/09/15 10:24:47;;;;;;;6.38;3.53;;;;;;;20.46;72.31;97194.88;5046210;28;20044;-47
2021/09/15 10:27:13;;;;;;;6.05;2.85;;;;;;;20.48;72.04;97182.44;5047258;28;20099;-48
2021/09/15 10:29:42;;;;;;;8.75;3.15;;;;;;;20.54;71.89;97189.38;5037562;28;20021;-45
2021/09/15 10:32:09;;;;;;;6.60;3.40;;;;;;;20.59;71.59;97193.91;5025240;28;20052;-50
2021/09/15 10:34:40;;;;;;;8.02;3.30;;;;;;;20.61;71.90;97180.69;5045117;28;20029;-47
2021/09/15 10:37:12;;;;;;;6.85;3.08;;;;;;;20.61;72.16;97177.91;5047208;28;20719;-51
2021/09/15 10:39:56;;;;;;;;;;;;;;;20.54;72.04;97181.13;5047132;28;20033;-48
2021/09/15 10:45:16;;;;;;;5.53;2.90;;;;;;;20.60;72.19;97184.53;5043708;28;20601;-53
2021/09/15 10:47:53;;;;;;;5.90;3.30;;;;;;;20.64;71.50;97182.75;5026346;28;20103;-53
2021/09/15 10:50:27;;;;;;;5.38;2.95;;;;;;;20.65;71.55;97178.06;5037129;28;20044;-50
2021/09/15 10:53:12;;;;;;;7.68;3.10;;;;;;;20.71;71.30;97182.28;5023408;28;20025;-50
2021/09/15 10:55:51;;;;;;;7.60;3.35;;;;;;;20.73;70.68;97185.53;5032937;28;20057;-49
2021/09/15 10:58:20;;;;;;;5.47;3.20;;;;;;;20.73;69.52;97177.28;5037565;28;20085;-46
2021/09/15 11:00:56;;;;;;;6.43;2.90;;;;;;;20.74;69.61;97178.88;5038535;28;20509;-54
2021/09/15 11:03:37;;;;;;;5.00;2.83;;;;;;;20.76;69.53;97178.56;5029855;28;20021;-47
2021/09/15 11:06:11;;;;;;;7.28;3.00;;;;;;;20.79;69.66;97172.41;5040528;28;20078;-48
2021/09/15 11:08:39;;;;;;;4.78;2.75;;;;;;;20.77;69.31;97163.66;5031084;28;20048;-48
2021/09/15 11:11:31;;;;;;;5.55;2.90;;;;;;;20.77;69.15;97169.16;5024071;28;20116;-47
2021/09/15 11:14:06;;;;;;;5.85;3.00;;;;;;;20.77;69.20;97170.00;5017118;28;20618;-46
2021/09/15 11:16:36;;;;;;;6.15;3.08;;;;;;;20.77;69.30;97174.66;5034094;28;20071;-48
2021/09/15 11:19:12;;;;;;;4.43;2.80;;;;;;;20.76;68.97;97168.38;5026497;28;20021;-48
2021/09/15 11:21:49;;;;;;;4.88;2.70;;;;;;;20.77;69.09;97175.50;5033744;28;20032;-45
2021/09/15 11:24:20;;;;;;;4.75;2.85;;;;;;;20.75;69.12;97169.47;5028895;28;20041;-46
2021/09/15 11:26:50;;;;;;;5.53;2.83;;;;;;;20.76;69.08;97171.13;5037910;28;20082;-46
2021/09/15 11:29:36;;;;;;;5.53;2.63;;;;;;;20.77;68.45;97166.41;5037065;28;20029;-44
2021/09/15 11:32:02;;;;;;;6.00;2.55;;;;;;;20.77;68.34;97169.16;5022438;28;20029;-46
2021/09/15 11:34:27;;;;;;;5.10;2.50;;;;;;;20.78;68.44;97174.34;5033969;28;20036;-47
2021/09/15 11:36:52;;;;;;;4.95;2.55;;;;;;;20.78;68.35;97171.59;5044411;28;20032;-46
2021/09/15 11:39:23;;;;;;;5.72;2.67;;;;;;;20.78;68.22;97162.53;5031409;28;20028;-46
2021/09/15 11:41:49;;;;;;;6.35;2.90;;;;;;;20.78;68.29;97165.28;5040455;28;20102;-47
2021/09/15 11:44:14;;;;;;;7.95;2.95;;;;;;;20.78;68.20;97157.84;5034554;28;20068;-47
2021/09/15 11:46:40;;;;;;;5.10;2.78;;;;;;;20.77;68.22;97156.22;5016438;28;20485;-46